createdAt,value
2023-03-24T00:00:18.186Z,20.66
2023-03-24T00:02:46.590Z,20.65
2023-03-24T00:05:17.016Z,20.67
2023-03-24T00:07:46.637Z,20.65
2023-03-24T00:10:18.072Z,20.67
2023-03-24T00:12:46.872Z,20.65
2023-03-24T00:15:19.874Z,20.64
2023-03-24T00:17:50.492Z,20.63
2023-03-24T00:20:20.176Z,20.62
2023-03-24T00:22:50.828Z,20.65
2023-03-24T00:25:19.907Z,20.66
2023-03-24T00:27:48.863Z,20.65
2023-03-24T00:30:18.006Z,20.65
2023-03-24T00:32:45.276Z,20.64
2023-03-24T00:35:14.550Z,20.64
2023-03-24T00:37:42.883Z,20.66
2023-03-24T00:40:14.000Z,20.66
2023-03-24T00:42:45.665Z,20.65
2023-03-24T00:45:15.217Z,20.63
2023-03-24T00:47:44.904Z,20.62
2023-03-24T00:50:17.392Z,20.61
2023-03-24T00:52:47.882Z,20.62
2023-03-24T00:55:16.461Z,20.63
2023-03-24T00:57:51.776Z,20.64
2023-03-24T01:00:24.193Z,20.63
2023-03-24T01:02:55.466Z,20.63
2023-03-24T01:05:24.103Z,20.64
2023-03-24T01:07:53.682Z,20.63
2023-03-24T01:10:26.189Z,20.62
2023-03-24T01:12:56.033Z,20.64
2023-03-24T01:15:26.473Z,20.62
2023-03-24T01:17:54.365Z,20.62
2023-03-24T01:20:23.178Z,20.62
2023-03-24T01:22:51.306Z,20.63
2023-03-24T01:25:20.896Z,20.62
2023-03-24T01:27:48.788Z,20.62
2023-03-24T01:30:18.734Z,20.62
2023-03-24T01:32:45.319Z,20.63
2023-03-24T01:35:12.008Z,20.63
2023-03-24T01:37:39.461Z,20.62
2023-03-24T01:40:09.775Z,20.62
2023-03-24T01:42:38.493Z,20.61
2023-03-24T01:45:42.154Z,20.59
2023-03-24T01:48:16.465Z,20.62
2023-03-24T01:50:47.046Z,20.62
2023-03-24T01:53:13.938Z,20.62
2023-03-24T01:55:42.651Z,20.63
2023-03-24T01:58:09.838Z,20.61
2023-03-24T02:00:51.019Z,20.62
2023-03-24T02:03:40.113Z,20.61
2023-03-24T02:06:08.592Z,20.57
2023-03-24T02:08:50.608Z,20.56
2023-03-24T02:11:17.147Z,20.56
2023-03-24T02:13:50.843Z,20.55
2023-03-24T02:17:07.446Z,20.54
2023-03-24T02:19:47.645Z,20.57
2023-03-24T02:22:40.946Z,20.56
2023-03-24T02:25:16.474Z,20.55
2023-03-24T02:27:58.283Z,20.55
2023-03-24T02:30:49.860Z,20.58
2023-03-24T02:33:46.455Z,20.58
2023-03-24T02:36:50.156Z,20.58
2023-03-24T02:39:38.014Z,20.60
2023-03-24T02:42:17.181Z,20.61
2023-03-24T02:44:46.520Z,20.59
2023-03-24T02:47:20.586Z,20.62
2023-03-24T02:49:55.870Z,20.64
2023-03-24T02:52:40.444Z,20.63
2023-03-24T02:55:16.558Z,20.63
2023-03-24T02:57:46.577Z,20.63
2023-03-24T03:00:36.700Z,20.68
2023-03-24T03:03:12.032Z,20.67
2023-03-24T03:05:46.422Z,20.65
2023-03-24T03:08:17.502Z,20.65
2023-03-24T03:10:47.244Z,20.64
2023-03-24T03:13:34.051Z,20.66
2023-03-24T03:16:07.595Z,20.65
2023-03-24T03:18:43.452Z,20.65
2023-03-24T03:21:15.977Z,20.63
2023-03-24T03:23:49.651Z,20.63
2023-03-24T03:26:19.693Z,20.61
2023-03-24T03:28:57.748Z,20.62
2023-03-24T03:31:29.903Z,20.60
2023-03-24T03:34:08.713Z,20.59
2023-03-24T03:36:50.886Z,20.58
2023-03-24T03:39:34.186Z,20.59
2023-03-24T03:42:06.749Z,20.58
2023-03-24T03:44:33.566Z,20.59
2023-03-24T03:47:00.489Z,20.59
2023-03-24T03:49:37.740Z,20.59
2023-03-24T03:52:05.407Z,20.59
2023-03-24T03:54:32.698Z,20.60
2023-03-24T03:56:59.878Z,20.60
2023-03-24T03:59:37.021Z,20.61
2023-03-24T04:02:43.177Z,20.61
2023-03-24T04:05:47.378Z,20.61
2023-03-24T04:08:26.390Z,20.62
2023-03-24T04:11:40.605Z,20.61
2023-03-24T04:14:15.938Z,20.61
2023-03-24T04:17:07.038Z,20.61
2023-03-24T04:20:06.272Z,20.59
2023-03-24T04:22:49.509Z,20.58
2023-03-24T04:25:35.175Z,20.59
2023-03-24T04:28:06.384Z,20.59
2023-03-24T04:30:44.536Z,20.60
2023-03-24T04:33:25.136Z,20.59
2023-03-24T04:36:06.616Z,20.59
2023-03-24T04:38:53.210Z,20.59
2023-03-24T04:41:31.945Z,20.57
2023-03-24T04:44:11.855Z,20.57
2023-03-24T04:46:59.234Z,20.56
2023-03-24T04:49:27.169Z,20.56
2023-03-24T04:51:54.806Z,20.57
2023-03-24T04:54:25.433Z,20.56
2023-03-24T04:57:01.863Z,20.56
2023-03-24T04:59:34.181Z,20.55
2023-03-24T05:02:02.984Z,20.55
2023-03-24T05:04:30.574Z,20.55
2023-03-24T05:07:04.960Z,20.55
2023-03-24T05:09:31.680Z,20.57
2023-03-24T05:12:01.575Z,20.57
2023-03-24T05:14:31.900Z,20.59
2023-03-24T05:16:58.424Z,20.58
2023-03-24T05:19:24.976Z,20.58
2023-03-24T05:21:51.634Z,20.57
2023-03-24T05:24:18.710Z,20.58
2023-03-24T05:26:47.375Z,20.59
2023-03-24T05:29:17.176Z,20.60
2023-03-24T05:31:45.130Z,20.59
2023-03-24T05:34:23.180Z,20.62
2023-03-24T05:37:22.128Z,20.63
2023-03-24T05:39:50.580Z,20.60
2023-03-24T05:42:40.026Z,20.61
2023-03-24T05:45:07.631Z,20.63
2023-03-24T05:47:34.417Z,20.63
2023-03-24T05:50:01.114Z,20.63
2023-03-24T05:52:29.098Z,20.63
2023-03-24T05:55:07.517Z,20.62
2023-03-24T05:57:34.708Z,20.64
2023-03-24T06:00:24.725Z,20.64
2023-03-24T06:02:58.808Z,20.64
2023-03-24T06:05:31.860Z,20.66
2023-03-24T06:07:59.029Z,20.66
2023-03-24T06:10:28.511Z,20.66
2023-03-24T06:12:56.623Z,20.68
2023-03-24T06:15:27.915Z,20.68
2023-03-24T06:18:01.054Z,20.68
2023-03-24T06:20:33.880Z,20.69
2023-03-24T06:23:00.614Z,20.70
2023-03-24T06:25:35.759Z,20.69
2023-03-24T06:28:18.562Z,20.68
2023-03-24T06:30:46.849Z,20.69
2023-03-24T06:33:19.105Z,20.69
2023-03-24T06:35:46.147Z,20.69
2023-03-24T06:38:15.819Z,20.69
2023-03-24T06:40:44.101Z,20.70
2023-03-24T06:43:10.754Z,20.70
2023-03-24T06:45:40.082Z,20.70
2023-03-24T06:48:09.918Z,20.71
2023-03-24T06:50:37.999Z,20.70
2023-03-24T06:53:08.825Z,20.70
2023-03-24T06:55:36.593Z,20.69
2023-03-24T06:58:04.378Z,20.68
2023-03-24T07:00:43.272Z,20.66
2023-03-24T07:03:26.442Z,20.63
2023-03-24T07:06:13.020Z,20.61
2023-03-24T07:08:40.175Z,20.60
2023-03-24T07:11:09.849Z,20.61
2023-03-24T07:13:38.935Z,20.62
2023-03-24T07:16:06.375Z,20.65
2023-03-24T07:18:34.808Z,20.63
2023-03-24T07:21:05.166Z,20.61
2023-03-24T07:23:33.198Z,20.62
2023-03-24T07:26:04.814Z,20.61
2023-03-24T07:28:53.787Z,20.62
2023-03-24T07:31:50.783Z,20.64
2023-03-24T07:34:17.375Z,20.63
2023-03-24T07:36:43.818Z,20.63
2023-03-24T07:39:14.564Z,20.63
2023-03-24T07:41:41.225Z,20.64
2023-03-24T07:44:17.623Z,20.63
2023-03-24T07:46:49.869Z,20.66
2023-03-24T07:49:19.807Z,20.63
2023-03-24T07:52:08.644Z,20.61
2023-03-24T07:54:42.010Z,20.61
2023-03-24T07:57:11.096Z,20.62
2023-03-24T07:59:38.161Z,20.63
2023-03-24T08:02:19.987Z,20.63
2023-03-24T08:05:20.615Z,20.66
2023-03-24T08:08:19.212Z,20.70
2023-03-24T08:10:46.548Z,20.69
2023-03-24T08:13:13.357Z,20.70
2023-03-24T08:15:39.925Z,20.66
2023-03-24T08:19:58.500Z,20.60
2023-03-24T08:22:49.967Z,20.65
2023-03-24T08:25:26.743Z,20.65
2023-03-24T08:28:02.424Z,20.65
2023-03-24T08:30:28.974Z,20.66
2023-03-24T08:32:59.466Z,20.66
2023-03-24T08:35:34.872Z,20.64
2023-03-24T08:38:06.139Z,20.59
2023-03-24T08:40:34.967Z,20.61
2023-03-24T08:43:04.181Z,20.62
2023-03-24T08:45:32.443Z,20.59
2023-03-24T08:48:01.338Z,20.67
2023-03-24T08:50:32.448Z,20.79
2023-03-24T08:52:59.013Z,20.90
2023-03-24T08:55:26.320Z,20.98
2023-03-24T08:57:53.370Z,21.02
2023-03-24T09:00:21.127Z,21.06
2023-03-24T09:02:50.646Z,21.08
2023-03-24T09:05:29.353Z,21.09
2023-03-24T09:08:03.711Z,21.05
